Time;durP1;ratioP1;P1;durP2;ratioP2;P2;SDS_P1;SDS_P2;PMS_P1;PMS_P2;Temp;Humidity;BMP_temperature;BMP_pressure;BME280_temperature;BME280_humidity;BME280_pressure;Samples;Min_cycle;Max_cycle;Signal;HPM_P1;HPM_P2
2023/07/17 00:01:51;;;;;;;6.00;3.20;;;18.30;99.90;;;;;;6186474;23;20028;-91
2023/07/17 00:04:38;;;;;;;7.55;3.35;;;18.30;99.90;;;;;;6185534;23;20025;-88
2023/07/17 00:07:25;;;;;;;6.88;3.00;;;18.30;99.90;;;;;;6185645;23;20123;-91
2023/07/17 00:10:18;;;;;;;6.40;2.85;;;18.30;99.90;;;;;;6184542;23;20349;-90
2023/07/17 00:13:08;;;;;;;7.63;2.78;;;18.30;99.90;;;;;;6184234;23;20039;-91
2023/07/17 00:15:55;;;;;;;5.07;2.78;;;18.30;99.90;;;;;;6164234;23;20087;-91
2023/07/17 00:18:47;;;;;;;7.10;2.55;;;18.30;99.90;;;;;;6188132;23;20104;-91
2023/07/17 00:21:35;;;;;;;7.20;2.80;;;18.40;99.90;;;;;;6185574;23;20310;-89
2023/07/17 00:24:24;;;;;;;5.75;2.85;;;18.30;99.90;;;;;;6186489;23;20021;-88
2023/07/17 00:27:17;;;;;;;7.53;2.97;;;18.30;99.90;;;;;;6188932;23;20103;-91
2023/07/17 00:30:08;;;;;;;5.03;2.35;;;18.20;99.90;;;;;;6164822;23;20025;-90
2023/07/17 00:32:57;;;;;;;5.10;2.72;;;18.30;99.90;;;;;;6187377;23;20135;-90
2023/07/17 00:35:47;;;;;;;6.53;2.55;;;18.40;99.90;;;;;;6186342;23;20049;-90
2023/07/17 00:38:35;;;;;;;7.10;2.85;;;18.50;99.90;;;;;;6166160;23;20021;-88
2023/07/17 00:41:22;;;;;;;5.63;2.40;;;18.40;99.90;;;;;;6188105;23;20108;-90
2023/07/17 00:44:14;;;;;;;7.43;2.85;;;18.40;99.90;;;;;;6185730;23;20255;-89
2023/07/17 00:47:05;;;;;;;5.60;2.60;;;18.40;99.90;;;;;;6163412;23;20025;-87
2023/07/17 00:49:57;;;;;;;5.57;2.80;;;18.40;99.90;;;;;;6187813;23;20437;-91
2023/07/17 00:52:48;;;;;;;6.95;2.90;;;18.50;99.90;;;;;;6184533;23;20047;-88
2023/07/17 00:55:38;;;;;;;7.38;2.85;;;18.50;99.90;;;;;;6166011;23;20333;-89
2023/07/17 00:58:26;;;;;;;6.57;2.80;;;18.50;99.90;;;;;;6186410;23;20052;-90
2023/07/17 01:01:13;;;;;;;5.53;2.35;;;18.50;99.90;;;;;;6186843;23;20025;-90
2023/07/17 01:04:07;;;;;;;5.70;2.90;;;18.50;99.90;;;;;;6186954;23;20047;-87
2023/07/17 01:06:57;;;;;;;6.70;2.75;;;18.50;99.90;;;;;;6193983;23;20091;-90
2023/07/17 01:09:48;;;;;;;7.53;3.05;;;18.50;99.90;;;;;;6189055;23;20020;-87
2023/07/17 01:12:36;;;;;;;7.57;2.63;;;18.50;99.90;;;;;;6189343;23;20323;-91
2023/07/17 01:15:26;;;;;;;6.32;2.92;;;18.50;99.90;;;;;;6188601;23;20021;-91
2023/07/17 01:18:16;;;;;;;6.40;2.50;;;18.50;99.90;;;;;;6184773;23;20439;-89
2023/07/17 01:21:07;;;;;;;5.65;2.50;;;18.40;99.90;;;;;;6184606;23;20029;-90
2023/07/17 01:23:56;;;;;;;7.22;2.58;;;18.30;99.90;;;;;;6184126;23;20033;-87
2023/07/17 01:26:46;;;;;;;5.50;2.42;;;18.30;99.90;;;;;;6183849;23;20116;-88
2023/07/17 01:29:35;;;;;;;8.00;3.10;;;18.30;99.90;;;;;;6186560;23;20035;-90
2023/07/17 01:32:27;;;;;;;6.88;3.20;;;18.30;99.90;;;;;;6184356;23;20408;-91
2023/07/17 01:35:15;;;;;;;6.82;2.60;;;18.20;99.90;;;;;;6185061;23;20457;-88
2023/07/17 01:38:02;;;;;;;8.43;2.50;;;18.20;99.90;;;;;;6187466;23;20409;-89
2023/07/17 01:40:52;;;;;;;9.38;2.92;;;18.20;99.90;;;;;;6196598;23;20075;-88
2023/07/17 01:43:39;;;;;;;5.45;2.90;;;18.20;99.90;;;;;;6202272;23;20036;-83
2023/07/17 01:46:26;;;;;;;7.35;2.85;;;18.20;99.90;;;;;;6202374;23;20401;-89
2023/07/17 01:49:14;;;;;;;7.00;2.78;;;18.20;99.90;;;;;;6185664;23;20025;-91
2023/07/17 01:52:03;;;;;;;5.80;2.70;;;18.20;99.90;;;;;;6184245;23;20043;-89
2023/07/17 01:54:50;;;;;;;7.68;2.70;;;18.10;99.90;;;;;;6191194;23;20029;-89
2023/07/17 01:57:37;;;;;;;7.47;2.78;;;18.10;99.90;;;;;;6203675;23;20032;-82
2023/07/17 02:00:25;;;;;;;6.93;2.60;;;18.10;99.90;;;;;;6198685;23;20080;-89
2023/07/17 02:03:20;;;;;;;4.65;2.42;;;18.00;99.90;;;;;;6190973;23;20110;-90
2023/07/17 02:06:12;;;;;;;7.38;3.17;;;18.00;99.90;;;;;;6183120;23;20119;-89
2023/07/17 02:09:04;;;;;;;8.77;3.05;;;18.00;99.90;;;;;;6184946;23;20405;-90
2023/07/17 02:11:51;;;;;;;6.77;2.97;;;18.00;99.90;;;;;;6181834;23;20405;-88
2023/07/17 02:14:41;;;;;;;6.75;2.70;;;18.00;99.90;;;;;;6183095;23;20021;-88
2023/07/17 02:17:28;;;;;;;6.05;2.80;;;17.90;99.90;;;;;;6188059;23;20107;-90
2023/07/17 02:20:15;;;;;;;5.93;2.83;;;17.90;99.90;;;;;;6193454;23;20229;-89
2023/07/17 02:23:08;;;;;;;7.85;3.03;;;17.90;99.90;;;;;;6197132;23;20029;-90
2023/07/17 02:25:56;;;;;;;8.52;3.00;;;17.90;99.90;;;;;;6197127;23;20040;-88
2023/07/17 02:28:43;;;;;;;5.47;2.65;;;17.90;99.90;;;;;;6195574;23;20024;-91
2023/07/17 02:31:32;;;;;;;7.80;3.35;;;17.80;99.90;;;;;;6196793;23;20043;-92
2023/07/17 02:34:20;;;;;;;5.03;2.50;;;17.80;99.90;;;;;;6186731;23;20336;-92
2023/07/17 02:37:13;;;;;;;7.35;3.00;;;17.70;99.90;;;;;;6165272;23;20306;-91
2023/07/17 02:40:00;;;;;;;6.38;2.75;;;17.70;99.90;;;;;;6189588;23;20088;-90
2023/07/17 02:42:47;;;;;;;7.90;3.35;;;17.80;99.90;;;;;;6191314;23;20032;-91
2023/07/17 02:45:36;;;;;;;5.95;2.80;;;17.80;99.90;;;;;;6200835;23;20021;-91
2023/07/17 02:48:27;;;;;;;4.57;2.88;;;17.70;99.90;;;;;;6179480;23;20405;-91
2023/07/17 02:51:17;;;;;;;8.27;3.08;;;17.70;99.90;;;;;;6200090;23;20079;-92
2023/07/17 02:54:05;;;;;;;9.55;2.65;;;17.70;99.90;;;;;;6186125;23;20138;-91
2023/07/17 02:56:56;;;;;;;8.02;2.97;;;17.70;99.90;;;;;;6185642;23;20025;-91
2023/07/17 02:59:44;;;;;;;7.43;3.20;;;17.60;99.90;;;;;;6185757;23;20040;-91
2023/07/17 03:02:33;;;;;;;9.98;3.67;;;17.60;99.90;;;;;;6185168;23;20109;-91
2023/07/17 03:05:21;;;;;;;7.70;2.95;;;17.60;99.90;;;;;;6187113;23;20148;-91
2023/07/17 03:08:08;;;;;;;8.93;3.10;;;17.50;99.90;;;;;;6185445;23;20103;-88
2023/07/17 03:10:55;;;;;;;6.97;3.38;;;17.50;99.90;;;;;;6183751;23;20048;-89
2023/07/17 03:13:43;;;;;;;6.70;2.80;;;17.40;99.90;;;;;;6185898;23;20024;-91
2023/07/17 03:16:30;;;;;;;6.32;3.03;;;17.40;99.90;;;;;;6188007;23;20036;-91
2023/07/17 03:19:17;;;;;;;8.98;3.10;;;17.40;99.90;;;;;;6184318;23;20021;-91
2023/07/17 03:22:07;;;;;;;8.40;3.15;;;17.40;99.90;;;;;;6185988;23;20099;-91
2023/07/17 03:24:54;;;;;;;6.60;2.85;;;17.40;99.90;;;;;;6188110;23;20021;-91
2023/07/17 03:27:44;;;;;;;7.60;3.58;;;17.30;99.90;;;;;;6186771;23;20025;-92
2023/07/17 03:30:32;;;;;;;9.95;3.35;;;17.30;99.90;;;;;;6202728;23;20354;-89
2023/07/17 03:33:20;;;;;;;7.30;3.60;;;17.30;99.90;;;;;;6199312;23;20420;-87
2023/07/17 03:36:07;;;;;;;6.13;3.05;;;17.30;99.90;;;;;;6207156;23;20076;-87
2023/07/17 03:38:55;;;;;;;7.20;3.30;;;17.20;99.90;;;;;;6208798;23;20031;-90
2023/07/17 03:41:42;;;;;;;9.18;3.20;;;17.20;99.90;;;;;;6201311;23;20043;-90
2023/07/17 03:44:29;;;;;;;7.15;2.80;;;17.20;99.90;;;;;;6201342;23;20069;-90
2023/07/17 03:47:16;;;;;;;6.97;3.00;;;17.20;99.90;;;;;;6197527;23;20025;-90
2023/07/17 03:50:04;;;;;;;9.00;3.60;;;17.20;99.90;;;;;;6188153;23;20025;-90
2023/07/17 03:52:52;;;;;;;10.45;3.63;;;17.30;99.90;;;;;;6187747;23;20021;-88
2023/07/17 03:55:41;;;;;;;8.75;2.85;;;17.30;99.90;;;;;;6187715;23;20025;-90
2023/07/17 03:58:28;;;;;;;8.07;3.40;;;17.30;99.90;;;;;;6185504;23;20021;-91
2023/07/17 04:02:02;;;;;;;;;;;;;;;;;;;;;
2023/07/17 04:04:52;;;;;;;7.25;2.95;;;17.30;99.90;;;;;;6187078;23;20500;-90
2023/07/17 04:07:40;;;;;;;7.30;3.20;;;17.20;99.90;;;;;;6190330;23;20040;-91
2023/07/17 04:10:28;;;;;;;6.82;3.42;;;17.20;99.90;;;;;;6186946;23;20025;-93
2023/07/17 04:13:18;;;;;;;5.65;2.83;;;17.10;99.90;;;;;;6186111;23;20024;-87
2023/07/17 04:16:08;;;;;;;8.48;3.58;;;17.10;99.90;;;;;;6185628;23;20036;-88
2023/07/17 04:18:55;;;;;;;7.13;3.30;;;17.00;99.90;;;;;;6187742;23;20025;-92
2023/07/17 04:21:45;;;;;;;5.88;3.42;;;17.00;99.90;;;;;;6187584;23;20029;-93
2023/07/17 04:24:32;;;;;;;6.47;3.30;;;17.00;99.90;;;;;;6188781;23;20120;-90
2023/07/17 04:27:21;;;;;;;6.18;3.17;;;17.00;99.90;;;;;;6188999;23;20028;-87
2023/07/17 04:30:09;;;;;;;8.45;3.40;;;17.00;99.90;;;;;;6189044;23;20195;-88
2023/07/17 04:33:00;;;;;;;9.82;3.50;;;17.10;99.90;;;;;;6189186;23;20111;-88
2023/07/17 04:35:51;;;;;;;7.93;3.83;;;17.10;99.90;;;;;;6189561;23;20065;-88
2023/07/17 04:38:38;;;;;;;9.38;3.92;;;17.10;99.90;;;;;;6187226;23;20025;-88
2023/07/17 04:41:25;;;;;;;7.80;3.55;;;17.10;99.90;;;;;;6185553;23;20021;-92
2023/07/17 04:44:12;;;;;;;5.65;3.00;;;17.10;99.90;;;;;;6187606;23;20036;-91
2023/07/17 04:46:59;;;;;;;8.63;3.50;;;17.20;99.90;;;;;;6187275;23;20036;-93
2023/07/17 04:49:51;;;;;;;9.40;3.75;;;17.20;99.90;;;;;;6191063;23;20032;-92
2023/07/17 04:52:38;;;;;;;10.18;3.33;;;17.30;99.90;;;;;;6197921;23;20021;-92
2023/07/17 04:55:28;;;;;;;9.30;3.65;;;17.30;99.90;;;;;;6189531;23;20021;-92
2023/07/17 04:58:15;;;;;;;9.70;3.30;;;17.30;99.90;;;;;;6186786;23;20052;-89
2023/07/17 05:01:04;;;;;;;8.68;3.45;;;17.30;99.90;;;;;;6193642;23;20032;-92
2023/07/17 05:03:51;;;;;;;8.73;3.55;;;17.30;99.90;;;;;;6190187;23;20087;-94
2023/07/17 05:06:38;;;;;;;10.05;4.15;;;17.30;99.90;;;;;;6190652;23;20107;-91
2023/07/17 05:09:28;;;;;;;11.00;3.83;;;17.40;99.90;;;;;;6190621;23;20112;-93
2023/07/17 05:12:18;;;;;;;9.07;3.83;;;17.50;99.90;;;;;;6193052;23;20410;-91
2023/07/17 05:15:08;;;;;;;7.20;3.63;;;17.60;99.90;;;;;;6190258;23;20021;-93
2023/07/17 05:17:57;;;;;;;8.32;3.38;;;17.60;99.90;;;;;;6191397;23;20306;-95
2023/07/17 05:20:46;;;;;;;6.78;3.33;;;17.70;99.90;;;;;;6181752;23;20039;-87
2023/07/17 05:23:35;;;;;;;9.27;3.45;;;17.70;99.90;;;;;;6181971;23;20100;-86
2023/07/17 05:26:22;;;;;;;8.30;3.55;;;17.80;99.90;;;;;;6184064;23;20352;-86
2023/07/17 05:29:12;;;;;;;12.38;3.80;;;17.90;99.90;;;;;;6185587;23;20436;-85
2023/07/17 05:32:02;;;;;;;10.75;4.18;;;18.00;99.90;;;;;;6185666;23;20025;-88
2023/07/17 05:34:50;;;;;;;10.02;3.50;;;18.10;99.90;;;;;;6186116;23;20080;-85
2023/07/17 05:37:42;;;;;;;7.28;3.33;;;18.10;99.90;;;;;;6184164;23;20100;-88
2023/07/17 05:40:35;;;;;;;11.70;3.38;;;18.20;99.90;;;;;;6185934;23;20028;-87
2023/07/17 05:43:23;;;;;;;8.32;3.05;;;18.20;99.90;;;;;;6185111;23;20127;-87
2023/07/17 05:46:16;;;;;;;10.18;3.70;;;18.30;99.90;;;;;;6185194;23;20432;-84
2023/07/17 05:49:03;;;;;;;;;;;18.30;99.90;;;;;;6187115;23;20048;-87
2023/07/17 05:51:53;;;;;;;10.23;3.60;;;18.20;99.90;;;;;;6185634;23;19916;-89
2023/07/17 05:54:44;;;;;;;7.38;3.45;;;18.20;99.90;;;;;;6182773;23;20025;-87
2023/07/17 05:57:37;;;;;;;5.57;3.25;;;18.20;99.90;;;;;;6186640;23;20021;-85
2023/07/17 06:00:25;;;;;;;7.90;3.72;;;18.20;99.90;;;;;;6183659;23;20063;-87
2023/07/17 06:03:13;;;;;;;9.73;3.63;;;18.30;99.90;;;;;;6186425;23;20585;-88
2023/07/17 06:06:03;;;;;;;9.85;3.40;;;18.40;99.90;;;;;;6186119;23;20273;-87
2023/07/17 06:08:50;;;;;;;10.82;4.13;;;18.50;99.90;;;;;;6184906;23;20145;-85
2023/07/17 06:11:46;;;;;;;7.57;3.75;;;18.60;99.90;;;;;;6184207;23;20113;-87
2023/07/17 06:14:39;;;;;;;9.55;3.30;;;18.70;99.90;;;;;;6186481;23;20025;-86
2023/07/17 06:17:26;;;;;;;8.43;3.60;;;18.70;99.90;;;;;;6183570;23;20039;-86
2023/07/17 06:20:17;;;;;;;8.50;3.53;;;18.90;99.90;;;;;;6184580;23;20025;-90
2023/07/17 06:23:22;;;;;;;7.15;3.35;;;19.00;99.90;;;;;;6184944;23;20106;-88
2023/07/17 06:26:20;;;;;;;10.05;3.65;;;19.20;99.90;;;;;;6183339;23;20032;-86
2023/07/17 06:29:15;;;;;;;8.18;3.08;;;19.20;99.90;;;;;;6184124;23;20020;-88
2023/07/17 06:32:03;;;;;;;8.98;3.50;;;19.40;99.90;;;;;;6183493;23;20025;-89
2023/07/17 06:34:58;;;;;;;8.82;3.50;;;19.60;99.90;;;;;;6184395;23;20057;-89
2023/07/17 06:37:45;;;;;;;6.70;3.40;;;19.60;99.90;;;;;;6183272;23;20024;-87
2023/07/17 06:41:03;;;;;;;8.00;3.30;;;19.70;99.90;;;;;;6183930;23;20028;-93
2023/07/17 06:43:57;;;;;;;7.43;3.05;;;19.90;91.50;;;;;;6182408;23;20029;-87
2023/07/17 06:46:44;;;;;;;11.63;4.68;;;20.10;81.10;;;;;;6182527;23;20067;-88
2023/07/17 06:49:32;;;;;;;9.15;3.47;;;20.20;78.50;;;;;;6162409;23;20025;-89
2023/07/17 06:52:31;;;;;;;;;;;;;;;;;;;;;
2023/07/17 06:55:27;;;;;;;10.20;3.80;;;20.60;34.60;;;;;;6184555;23;20144;-89
2023/07/17 06:58:15;;;;;;;6.63;3.60;;;20.60;25.30;;;;;;6185742;23;20032;-87
2023/07/17 07:01:03;;;;;;;8.02;3.58;;;20.50;19.10;;;;;;6182468;23;20029;-87
2023/07/17 07:03:53;;;;;;;7.18;3.58;;;20.50;11.90;;;;;;6183888;23;20032;-85
2023/07/17 07:06:41;;;;;;;8.50;4.20;;;20.60;8.30;;;;;;6183446;23;20160;-88
2023/07/17 07:09:29;;;;;;;12.15;4.55;;;20.90;3.80;;;;;;6181886;23;20035;-87
2023/07/17 07:12:17;;;;;;;7.10;4.40;;;21.20;1.00;;;;;;6185456;23;20048;-89
2023/07/17 07:15:12;;;;;;;11.52;4.00;;;21.40;1.00;;;;;;6184626;23;20029;-89
2023/07/17 07:18:04;;;;;;;8.35;3.92;;;21.80;1.00;;;;;;6183774;23;20436;-90
2023/07/17 07:20:58;;;;;;;7.22;3.75;;;21.90;1.00;;;;;;6182705;23;20105;-88
2023/07/17 07:23:52;;;;;;;8.88;3.80;;;22.20;1.00;;;;;;6185150;23;20025;-89
2023/07/17 07:26:44;;;;;;;8.32;3.95;;;22.10;1.00;;;;;;6183608;23;20100;-89
2023/07/17 07:29:46;;;;;;;6.77;3.87;;;22.30;1.00;;;;;;6188982;23;20025;-87
2023/07/17 07:32:39;;;;;;;10.98;4.30;;;22.20;1.00;;;;;;6181296;23;20271;-88
2023/07/17 07:35:28;;;;;;;8.20;4.22;;;22.50;1.00;;;;;;6183812;23;20025;-90
2023/07/17 07:38:16;;;;;;;10.93;4.22;;;22.70;1.00;;;;;;6186206;23;20424;-91
2023/07/17 07:41:24;;;;;;;12.82;4.72;;;22.90;1.00;;;;;;6195060;23;20028;-89
2023/07/17 07:44:17;;;;;;;11.23;5.05;;;23.50;1.00;;;;;;6198925;23;20024;-87
2023/07/17 07:47:08;;;;;;;5.78;4.40;;;23.50;1.00;;;;;;6201694;23;20120;-89
2023/07/17 07:50:22;;;;;;;6.88;4.32;;;23.80;1.00;;;;;;6196963;23;20025;-90
2023/07/17 07:53:30;;;;;;;10.00;4.60;;;24.00;1.00;;;;;;6062498;23;20053;-87
2023/07/17 07:56:31;;;;;;;7.68;4.07;;;24.10;1.00;;;;;;6165542;23;20029;-87
2023/07/17 07:59:58;;;;;;;;;;;;;;;;;;;;;
2023/07/17 08:03:37;;;;;;;;;;;;;;;;;;;;;
2023/07/17 08:06:48;;;;;;;9.23;4.45;;;24.10;1.00;;;;;;6191487;23;20025;-89
2023/07/17 08:10:07;;;;;;;9.43;4.65;;;23.80;1.00;;;;;;6192647;23;20052;-93
2023/07/17 08:13:06;;;;;;;9.07;3.90;;;24.30;1.00;;;;;;6187856;23;20025;-91
2023/07/17 08:20:22;;;;;;;9.77;4.85;;;25.10;1.00;;;;;;6064439;23;20023;-88
2023/07/17 08:23:11;;;;;;;8.23;4.07;;;25.70;1.00;;;;;;6169024;23;20032;-89
2023/07/17 08:26:04;;;;;;;8.75;4.57;;;25.30;1.00;;;;;;6184728;23;20025;-91
2023/07/17 08:29:26;;;;;;;;;;;;;;;;;;;;;
2023/07/17 08:33:22;;;;;;;13.90;4.32;;;25.30;1.00;;;;;;6187091;23;20500;-90
2023/07/17 08:36:26;;;;;;;5.18;3.60;;;25.30;1.00;;;;;;6185720;23;20021;-92
2023/07/17 08:39:42;;;;;;;7.57;3.88;;;25.90;1.00;;;;;;6092151;23;20025;-91
2023/07/17 08:42:57;;;;;;;5.75;4.10;;;25.70;1.00;;;;;;6189951;23;20033;-92
2023/07/17 08:46:19;;;;;;;9.52;4.00;;;25.00;1.00;;;;;;6194232;23;20035;-91
2023/07/17 09:02:42;;;;;;;8.45;4.40;;;24.90;1.00;;;;;;6038575;23;20019;-91
2023/07/17 09:06:11;;;;;;;;;;;;;;;;;;;;;
2023/07/17 09:09:21;;;;;;;11.77;4.60;;;26.90;1.00;;;;;;6125304;23;20480;-90
2023/07/17 09:12:16;;;;;;;8.38;4.53;;;26.20;1.00;;;;;;6132675;23;20117;-87
2023/07/17 09:15:25;;;;;;;9.45;3.88;;;25.90;1.00;;;;;;6138284;23;20030;-88
2023/07/17 09:18:29;;;;;;;8.25;4.80;;;26.40;1.00;;;;;;6123812;23;20112;-87
2023/07/17 09:21:22;;;;;;;7.95;3.78;;;26.50;1.00;;;;;;6129575;23;20406;-88
2023/07/17 09:24:24;;;;;;;6.65;3.70;;;27.00;1.00;;;;;;6183633;23;20091;-90
2023/07/17 09:27:21;;;;;;;7.63;4.00;;;28.10;1.00;;;;;;6183283;23;20033;-89
2023/07/17 09:30:43;;;;;;;;;;;;;;;;;;;;;
2023/07/17 09:33:37;;;;;;;6.82;3.88;;;27.90;1.00;;;;;;6186940;23;20110;-91
2023/07/17 09:36:27;;;;;;;8.55;4.20;;;27.80;1.00;;;;;;6184018;23;20024;-90
2023/07/17 09:39:49;;;;;;;;;;;;;;;;;;;;;
2023/07/17 09:42:30;;;;;;;8.40;3.92;;;27.80;1.00;;;;;;6183937;23;20099;-90
2023/07/17 09:45:36;;;;;;;8.32;4.15;;;26.80;1.00;;;;;;6184360;23;20040;-89
2023/07/17 09:48:56;;;;;;;6.68;3.58;;;27.10;1.00;;;;;;6184092;23;20039;-91
2023/07/17 09:51:45;;;;;;;5.50;3.80;;;27.80;1.00;;;;;;6184246;23;20024;-88
2023/07/17 09:55:00;;;;;;;;;;;;;;;;;;;;;
2023/07/17 09:58:26;;;;;;;4.43;3.28;;;27.80;1.00;;;;;;6103285;23;20034;-93
2023/07/17 10:01:55;;;;;;;;;;;;;;;;;;;;;
2023/07/17 10:04:53;;;;;;;6.22;3.80;;;28.80;1.00;;;;;;6130703;23;20081;-88
2023/07/17 10:07:52;;;;;;;8.93;4.15;;;28.40;1.00;;;;;;6108148;23;20072;-88
2023/07/17 10:10:41;;;;;;;6.45;4.00;;;27.00;1.00;;;;;;6125649;23;20030;-87
2023/07/17 10:13:29;;;;;;;7.97;4.45;;;26.60;1.00;;;;;;6125749;23;20343;-89
2023/07/17 10:16:28;;;;;;;;;;;;;;;;;;;;;
2023/07/17 10:19:16;;;;;;;6.90;3.80;;;29.00;1.00;;;;;;6125693;23;20025;-87
2023/07/17 10:22:12;;;;;;;5.38;3.22;;;30.20;1.00;;;;;;6123233;23;20073;-93
2023/07/17 10:25:20;;;;;;;6.07;3.97;;;30.60;1.00;;;;;;6123514;23;20744;-90
2023/07/17 10:28:31;;;;;;;5.82;3.63;;;29.80;1.00;;;;;;6153793;23;20026;-92
2023/07/17 10:31:34;;;;;;;6.65;4.00;;;30.00;1.00;;;;;;6157593;23;20109;-92
2023/07/17 10:34:57;;;;;;;6.35;3.80;;;30.10;1.00;;;;;;6153358;23;20025;-89
2023/07/17 10:37:49;;;;;;;7.43;3.55;;;30.60;1.00;;;;;;6153676;23;20033;-93
2023/07/17 10:40:41;;;;;;;;;;;31.20;1.00;;;;;;6155121;23;20540;-93
2023/07/17 10:43:34;;;;;;;6.70;3.85;;;31.20;1.00;;;;;;6156140;23;19987;-88
2023/07/17 10:46:27;;;;;;;7.55;3.95;;;31.50;1.00;;;;;;6157167;23;20321;-87
2023/07/17 10:49:16;;;;;;;7.63;3.75;;;32.60;1.00;;;;;;6173588;23;20691;-92
2023/07/17 10:52:04;;;;;;;5.97;3.92;;;32.40;1.00;;;;;;6155666;23;20030;-92
2023/07/17 10:54:51;;;;;;;8.30;4.22;;;31.00;1.00;;;;;;6184640;23;20497;-92
2023/07/17 10:57:41;;;;;;;7.93;3.90;;;30.10;1.00;;;;;;6187289;23;20021;-90
2023/07/17 11:00:28;;;;;;;8.20;4.13;;;29.90;1.00;;;;;;6188563;23;20037;-91
2023/07/17 11:03:24;;;;;;;8.50;4.13;;;30.50;1.00;;;;;;6187999;23;20059;-89
2023/07/17 11:06:14;;;;;;;8.27;4.13;;;29.90;1.00;;;;;;6191301;23;20024;-87
2023/07/17 11:09:07;;;;;;;6.47;3.97;;;30.40;1.00;;;;;;6190508;23;20048;-88
2023/07/17 11:11:57;;;;;;;9.10;4.50;;;31.30;1.00;;;;;;6183778;23;20028;-90
2023/07/17 11:14:44;;;;;;;5.18;3.90;;;31.80;1.00;;;;;;6184989;23;20385;-90
2023/07/17 11:18:15;;;;;;;;;;;;;;;;;;;;;
2023/07/17 11:25:41;;;;;;;9.60;3.88;;;31.10;1.00;;;;;;6100655;23;20014;-91
2023/07/17 11:37:40;;;;;;;8.13;4.50;;;30.40;1.00;;;;;;6079945;23;20031;-94
2023/07/17 11:45:43;;;;;;;;;;;;;;;;;;;;;
2023/07/17 11:52:48;;;;;;;7.97;4.65;;;28.80;1.00;;;;;;5973550;24;20265;-90
2023/07/17 11:56:41;;;;;;;;;;;;;;;;;;;;;
2023/07/17 12:00:31;;;;;;;;;;;;;;;;;;;;;
2023/07/17 12:03:55;;;;;;;7.68;4.75;;;27.20;1.00;;;;;;6200175;23;20625;-92
2023/07/17 12:12:00;;;;;;;12.13;4.30;;;29.00;1.00;;;;;;6192943;23;20428;-90
2023/07/17 12:19:59;;;;;;;7.35;4.30;;;29.30;1.00;;;;;;6047294;23;20019;-92
2023/07/17 12:23:00;;;;;;;7.40;4.13;;;29.10;1.00;;;;;;6066529;23;20022;-90
2023/07/17 12:26:02;;;;;;;7.20;4.65;;;30.60;1.00;;;;;;6125325;23;20026;-89
2023/07/17 12:28:58;;;;;;;5.20;3.30;;;31.50;1.00;;;;;;6124068;23;20471;-88
2023/07/17 12:31:50;;;;;;;8.35;3.60;;;33.20;1.00;;;;;;6126209;23;20532;-89
2023/07/17 12:35:41;;;;;;;;;;;;;;;;;;;;;
2023/07/17 12:39:19;;;;;;;7.05;4.03;;;33.90;1.00;;;;;;6104747;23;20038;-92
2023/07/17 12:42:22;;;;;;;6.55;4.65;;;30.00;1.00;;;;;;6136478;23;20021;-90
2023/07/17 12:45:14;;;;;;;9.57;4.15;;;28.00;1.00;;;;;;6146640;23;20044;-85
2023/07/17 12:48:09;;;;;;;6.78;4.75;;;27.20;1.00;;;;;;6148862;23;20026;-85
2023/07/17 12:50:58;;;;;;;10.70;4.43;;;26.60;1.00;;;;;;6151094;23;20029;-89
2023/07/17 12:53:45;;;;;;;10.32;4.60;;;26.70;1.00;;;;;;6183530;23;20040;-90
2023/07/17 12:56:32;;;;;;;8.50;4.60;;;27.20;1.00;;;;;;6161061;23;20037;-89
2023/07/17 12:59:20;;;;;;;12.60;4.45;;;29.10;1.00;;;;;;6157851;23;20092;-88
2023/07/17 13:02:08;;;;;;;8.70;4.45;;;30.10;1.00;;;;;;6176931;23;20025;-89
2023/07/17 13:04:56;;;;;;;7.60;4.07;;;30.20;1.00;;;;;;6157770;23;20085;-88
2023/07/17 13:07:44;;;;;;;6.88;3.83;;;30.50;1.00;;;;;;6157372;23;20029;-88
2023/07/17 13:10:32;;;;;;;6.72;4.10;;;29.90;1.00;;;;;;6155855;23;20033;-89
2023/07/17 13:13:19;;;;;;;7.47;4.43;;;28.60;1.00;;;;;;6154602;23;20161;-91
2023/07/17 13:16:09;;;;;;;6.88;4.03;;;29.00;1.00;;;;;;6156721;23;20044;-90
2023/07/17 13:18:57;;;;;;;7.85;4.00;;;29.10;1.00;;;;;;6155751;23;20036;-89
2023/07/17 13:21:44;;;;;;;7.43;4.35;;;29.50;1.00;;;;;;6156450;23;20045;-91
2023/07/17 13:24:36;;;;;;;8.40;4.05;;;29.80;1.00;;;;;;6156084;23;20022;-89
2023/07/17 13:27:24;;;;;;;9.13;4.40;;;29.50;1.00;;;;;;6155049;23;20115;-92
2023/07/17 13:30:13;;;;;;;5.45;4.05;;;29.10;1.00;;;;;;6159786;23;20373;-89
2023/07/17 13:33:37;;;;;;;;;;;;;;;;;;;;;
2023/07/17 13:36:39;;;;;;;6.28;3.92;;;30.90;1.00;;;;;;6155147;23;20029;-88
2023/07/17 13:39:27;;;;;;;6.82;3.60;;;31.40;1.00;;;;;;6156190;23;20329;-88
2023/07/17 13:42:14;;;;;;;6.15;3.97;;;32.40;1.00;;;;;;6156410;23;20029;-87
2023/07/17 13:45:02;;;;;;;6.65;3.58;;;32.60;1.00;;;;;;6156640;23;20022;-89
2023/07/17 13:48:05;;;;;;;6.53;4.00;;;32.80;1.00;;;;;;6174828;23;20037;-91
2023/07/17 13:50:53;;;;;;;7.80;4.20;;;32.90;1.00;;;;;;6157224;23;20096;-86
2023/07/17 13:53:40;;;;;;;7.88;3.90;;;33.10;1.00;;;;;;6178995;23;20476;-90
2023/07/17 13:56:30;;;;;;;6.65;4.20;;;31.50;1.00;;;;;;6184368;23;20035;-89
2023/07/17 13:59:20;;;;;;;8.90;3.70;;;29.90;1.00;;;;;;6186105;23;20056;-90
2023/07/17 14:02:17;;;;;;;5.75;3.70;;;29.50;1.00;;;;;;6183510;23;20025;-89
2023/07/17 14:05:07;;;;;;;8.27;3.97;;;30.00;1.00;;;;;;6183439;23;20040;-89
2023/07/17 14:08:19;;;;;;;8.63;3.88;;;29.50;1.00;;;;;;6168247;23;20163;-89
2023/07/17 14:11:09;;;;;;;6.85;3.85;;;29.00;1.00;;;;;;6184784;23;20116;-89
2023/07/17 14:14:11;;;;;;;7.63;4.07;;;28.70;1.00;;;;;;6185890;23;20347;-90
2023/07/17 14:16:59;;;;;;;4.78;4.03;;;28.70;1.00;;;;;;6184359;23;20025;-90
2023/07/17 14:19:49;;;;;;;7.10;3.90;;;28.50;1.00;;;;;;6186172;23;20029;-88
2023/07/17 14:22:37;;;;;;;10.32;4.10;;;27.70;1.00;;;;;;6185177;23;20025;-87
2023/07/17 14:25:25;;;;;;;7.93;3.75;;;26.90;1.00;;;;;;6182425;23;20032;-89
2023/07/17 14:28:15;;;;;;;7.93;4.00;;;27.00;1.00;;;;;;6184990;23;20033;-88
2023/07/17 14:31:03;;;;;;;6.72;3.72;;;28.00;1.00;;;;;;6184540;23;20033;-88
2023/07/17 14:33:50;;;;;;;9.75;3.83;;;28.10;1.00;;;;;;6183461;23;20025;-92
2023/07/17 14:36:38;;;;;;;6.55;3.83;;;28.60;1.00;;;;;;6186180;23;20103;-91
2023/07/17 14:39:25;;;;;;;8.50;4.25;;;29.20;1.00;;;;;;6189779;23;20396;-92
2023/07/17 14:42:13;;;;;;;7.65;4.32;;;28.20;1.00;;;;;;6190000;23;20036;-92
2023/07/17 14:45:03;;;;;;;5.78;3.97;;;28.30;1.00;;;;;;6193758;23;20036;-93
2023/07/17 14:47:59;;;;;;;10.15;4.05;;;28.70;1.00;;;;;;6166249;23;20102;-92
2023/07/17 14:50:50;;;;;;;8.40;4.10;;;30.30;1.00;;;;;;6184839;23;20044;-91
2023/07/17 14:53:40;;;;;;;9.60;4.28;;;31.20;1.00;;;;;;6180919;23;20025;-95
2023/07/17 14:56:33;;;;;;;6.50;3.90;;;32.00;1.00;;;;;;6179493;23;20789;-93
2023/07/17 14:59:20;;;;;;;12.55;4.00;;;32.10;1.00;;;;;;6156162;23;20091;-92
2023/07/17 15:02:11;;;;;;;5.93;3.70;;;31.50;1.00;;;;;;6158095;23;20036;-91
2023/07/17 15:05:03;;;;;;;8.13;4.68;;;31.40;1.00;;;;;;6156818;23;20365;-93
2023/07/17 15:07:52;;;;;;;4.65;3.17;;;30.90;1.00;;;;;;6158466;23;20032;-92
2023/07/17 15:10:40;;;;;;;8.75;4.07;;;30.70;1.00;;;;;;6160451;23;20021;-93
2023/07/17 15:13:27;;;;;;;6.28;3.72;;;29.40;1.00;;;;;;6156429;23;20123;-93
2023/07/17 15:16:16;;;;;;;9.55;4.20;;;29.20;1.00;;;;;;6158305;23;20025;-91
2023/07/17 15:19:06;;;;;;;9.77;3.55;;;29.90;1.00;;;;;;6159522;23;20124;-95
2023/07/17 15:23:02;;;;;;;5.78;3.63;;;29.30;1.00;;;;;;6071933;23;20031;-92
2023/07/17 15:25:55;;;;;;;7.05;4.20;;;30.10;1.00;;;;;;6072140;23;20021;-94
2023/07/17 15:29:12;;;;;;;10.60;3.90;;;28.60;1.00;;;;;;6158740;23;20037;-93
2023/07/17 15:32:01;;;;;;;8.90;4.18;;;27.60;1.00;;;;;;6157203;23;20022;-92
2023/07/17 15:35:00;;;;;;;9.88;4.20;;;26.80;1.00;;;;;;6156802;23;20036;-93
2023/07/17 15:38:32;;;;;;;7.20;4.13;;;26.20;1.00;;;;;;6158006;23;20032;-91
2023/07/17 15:41:23;;;;;;;6.43;4.13;;;25.70;1.00;;;;;;6179802;23;20025;-93
2023/07/17 15:44:15;;;;;;;7.15;4.28;;;25.40;1.00;;;;;;6157110;23;20120;-93
2023/07/17 15:47:07;;;;;;;8.73;4.47;;;25.40;1.00;;;;;;6159311;23;20028;-94
2023/07/17 15:50:06;;;;;;;9.98;4.57;;;25.20;1.00;;;;;;6156940;23;20325;-94
2023/07/17 15:52:56;;;;;;;8.30;4.93;;;25.00;1.00;;;;;;6170494;23;20036;-92
2023/07/17 15:55:56;;;;;;;8.75;4.78;;;25.00;1.00;;;;;;6187864;23;20048;-91
2023/07/17 15:59:01;;;;;;;9.70;4.73;;;25.00;1.00;;;;;;6192924;23;20077;-93
2023/07/17 16:01:50;;;;;;;9.57;4.68;;;24.90;1.00;;;;;;6189458;23;20028;-92
2023/07/17 16:04:37;;;;;;;13.15;4.47;;;24.80;1.00;;;;;;6190374;23;20499;-93
2023/07/17 16:07:30;;;;;;;9.35;4.50;;;24.70;1.00;;;;;;6187931;23;20096;-91
2023/07/17 16:10:17;;;;;;;7.28;4.82;;;25.10;1.00;;;;;;6178492;23;20086;-93
2023/07/17 16:13:15;;;;;;;6.72;4.13;;;25.20;1.00;;;;;;6200074;23;20035;-93
2023/07/17 16:16:06;;;;;;;7.72;4.40;;;25.90;1.00;;;;;;6200020;23;20348;-93
2023/07/17 16:18:54;;;;;;;6.72;4.20;;;26.40;1.00;;;;;;6198753;23;20322;-92
2023/07/17 16:21:41;;;;;;;7.22;4.25;;;26.30;1.00;;;;;;6196320;23;20413;-94
2023/07/17 16:24:31;;;;;;;7.00;4.07;;;26.20;1.00;;;;;;6193488;23;20036;-93
2023/07/17 16:27:19;;;;;;;7.18;4.25;;;26.30;1.00;;;;;;6194045;23;20049;-93